sensor_id;sensor_type;location;lat;lon;timestamp;temperature;humidity
67893;DHT22;54688;52.376;16.744;2022-12-07T00:02:39;1.8;89.7
67893;DHT22;54688;52.376;16.744;2022-12-07T00:05:41;1.8;89.7
67893;DHT22;54688;52.376;16.744;2022-12-07T00:11:43;1.8;89.7
67893;DHT22;54688;52.376;16.744;2022-12-07T00:14:46;1.8;89.6
67893;DHT22;54688;52.376;16.744;2022-12-07T00:17:48;1.8;89.7
67893;DHT22;54688;52.376;16.744;2022-12-07T00:20:50;1.8;89.7
67893;DHT22;54688;52.376;16.744;2022-12-07T00:23:53;1.9;89.7
67893;DHT22;54688;52.376;16.744;2022-12-07T00:26:56;1.8;89.9
67893;DHT22;54688;52.376;16.744;2022-12-07T00:29:57;1.8;90
67893;DHT22;54688;52.376;16.744;2022-12-07T00:32:59;1.8;90.1
67893;DHT22;54688;52.376;16.744;2022-12-07T00:36:02;1.8;90.1
67893;DHT22;54688;52.376;16.744;2022-12-07T00:39:08;1.8;90.1
67893;DHT22;54688;52.376;16.744;2022-12-07T00:42:11;1.8;90.1
67893;DHT22;54688;52.376;16.744;2022-12-07T00:45:13;1.8;90.2
67893;DHT22;54688;52.376;16.744;2022-12-07T00:48:15;1.8;90.2
67893;DHT22;54688;52.376;16.744;2022-12-07T00:51:18;1.8;90.3
67893;DHT22;54688;52.376;16.744;2022-12-07T00:54:22;1.8;90.2
67893;DHT22;54688;52.376;16.744;2022-12-07T00:57:24;1.8;90.2
67893;DHT22;54688;52.376;16.744;2022-12-07T01:00:26;1.8;90.2
67893;DHT22;54688;52.376;16.744;2022-12-07T01:03:28;1.9;90.2
67893;DHT22;54688;52.376;16.744;2022-12-07T01:06:30;1.9;90.5
67893;DHT22;54688;52.376;16.744;2022-12-07T01:09:33;1.9;90.1
67893;DHT22;54688;52.376;16.744;2022-12-07T01:12:34;1.9;90.1
67893;DHT22;54688;52.376;16.744;2022-12-07T01:15:38;2;90.1
67893;DHT22;54688;52.376;16.744;2022-12-07T01:18:41;2;90.1
67893;DHT22;54688;52.376;16.744;2022-12-07T01:21:44;2;90
67893;DHT22;54688;52.376;16.744;2022-12-07T01:24:46;2;90
67893;DHT22;54688;52.376;16.744;2022-12-07T01:27:48;2;90
67893;DHT22;54688;52.376;16.744;2022-12-07T01:30:58;2;90
67893;DHT22;54688;52.376;16.744;2022-12-07T01:34:01;2;90
67893;DHT22;54688;52.376;16.744;2022-12-07T01:37:03;2;89.9
67893;DHT22;54688;52.376;16.744;2022-12-07T01:40:06;2;89.9
67893;DHT22;54688;52.376;16.744;2022-12-07T01:43:13;2;90.1
67893;DHT22;54688;52.376;16.744;2022-12-07T01:46:18;2.1;89.8
67893;DHT22;54688;52.376;16.744;2022-12-07T01:49:23;2.1;89.6
67893;DHT22;54688;52.376;16.744;2022-12-07T01:52:29;2.1;89.4
67893;DHT22;54688;52.376;16.744;2022-12-07T01:55:34;2.1;89.3
67893;DHT22;54688;52.376;16.744;2022-12-07T01:58:42;2.1;89.2
67893;DHT22;54688;52.376;16.744;2022-12-07T02:01:44;2.1;89
67893;DHT22;54688;52.376;16.744;2022-12-07T02:04:46;2.1;89.1
67893;DHT22;54688;52.376;16.744;2022-12-07T02:07:48;2.2;89.1
67893;DHT22;54688;52.376;16.744;2022-12-07T02:10:51;2.1;88.9
67893;DHT22;54688;52.376;16.744;2022-12-07T02:13:54;2.2;88.8
67893;DHT22;54688;52.376;16.744;2022-12-07T02:17:00;2.2;88.8
67893;DHT22;54688;52.376;16.744;2022-12-07T02:20:11;2.2;88.6
67893;DHT22;54688;52.376;16.744;2022-12-07T02:23:39;2.2;88.5
67893;DHT22;54688;52.376;16.744;2022-12-07T02:26:53;2.2;88.5
67893;DHT22;54688;52.376;16.744;2022-12-07T02:30:06;2.2;88.5
67893;DHT22;54688;52.376;16.744;2022-12-07T02:33:11;2.2;88.5
67893;DHT22;54688;52.376;16.744;2022-12-07T02:36:18;2.2;88.3
67893;DHT22;54688;52.376;16.744;2022-12-07T02:42:28;2.2;87.9
67893;DHT22;54688;52.376;16.744;2022-12-07T02:45:34;2.2;87.8
67893;DHT22;54688;52.376;16.744;2022-12-07T02:48:37;2.2;87.8
67893;DHT22;54688;52.376;16.744;2022-12-07T02:51:42;2.2;87.8
67893;DHT22;54688;52.376;16.744;2022-12-07T02:54:45;2.2;87.7
67893;DHT22;54688;52.376;16.744;2022-12-07T02:57:51;2.2;87.7
67893;DHT22;54688;52.376;16.744;2022-12-07T03:01:04;2.2;87.9
67893;DHT22;54688;52.376;16.744;2022-12-07T03:04:15;2.1;87.8
67893;DHT22;54688;52.376;16.744;2022-12-07T03:07:32;2.2;87.9
67893;DHT22;54688;52.376;16.744;2022-12-07T03:10:40;2.1;87.6
67893;DHT22;54688;52.376;16.744;2022-12-07T03:13:51;2.1;87.5
67893;DHT22;54688;52.376;16.744;2022-12-07T03:16:58;2.1;87.7
67893;DHT22;54688;52.376;16.744;2022-12-07T03:20:08;2.1;87.6
67893;DHT22;54688;52.376;16.744;2022-12-07T03:23:13;2.1;87.5
67893;DHT22;54688;52.376;16.744;2022-12-07T03:26:18;2.2;87.5
67893;DHT22;54688;52.376;16.744;2022-12-07T03:29:24;2.1;87.4
67893;DHT22;54688;52.376;16.744;2022-12-07T03:32:31;2.1;87.4
67893;DHT22;54688;52.376;16.744;2022-12-07T03:35:38;2.1;87.3
67893;DHT22;54688;52.376;16.744;2022-12-07T03:38:42;2.1;87.3
67893;DHT22;54688;52.376;16.744;2022-12-07T03:41:48;2.1;86.9
67893;DHT22;54688;52.376;16.744;2022-12-07T03:44:51;2.1;86.9
67893;DHT22;54688;52.376;16.744;2022-12-07T03:47:54;2.1;86.7
67893;DHT22;54688;52.376;16.744;2022-12-07T03:51:06;2.1;86.5
67893;DHT22;54688;52.376;16.744;2022-12-07T03:54:16;2.1;86.5
67893;DHT22;54688;52.376;16.744;2022-12-07T03:57:22;2;86.3
67893;DHT22;54688;52.376;16.744;2022-12-07T04:00:26;2.1;86.3
67893;DHT22;54688;52.376;16.744;2022-12-07T04:03:28;2;86.3
67893;DHT22;54688;52.376;16.744;2022-12-07T04:06:30;2;86.2
67893;DHT22;54688;52.376;16.744;2022-12-07T04:09:32;2.1;86.4
67893;DHT22;54688;52.376;16.744;2022-12-07T04:12:34;2.1;86.4
67893;DHT22;54688;52.376;16.744;2022-12-07T04:15:37;2.1;86.4
67893;DHT22;54688;52.376;16.744;2022-12-07T04:18:39;2.1;86.3
67893;DHT22;54688;52.376;16.744;2022-12-07T04:21:41;2.1;87.1
67893;DHT22;54688;52.376;16.744;2022-12-07T04:24:44;2.1;86.4
67893;DHT22;54688;52.376;16.744;2022-12-07T04:27:46;2.1;86.4
67893;DHT22;54688;52.376;16.744;2022-12-07T04:30:48;2.1;86.5
67893;DHT22;54688;52.376;16.744;2022-12-07T04:33:50;2.2;86.5
67893;DHT22;54688;52.376;16.744;2022-12-07T04:36:52;2.2;86.6
67893;DHT22;54688;52.376;16.744;2022-12-07T04:45:52;2.2;86.5
67893;DHT22;54688;52.376;16.744;2022-12-07T04:48:55;2.1;86.5
67893;DHT22;54688;52.376;16.744;2022-12-07T04:51:57;2.1;86.5
67893;DHT22;54688;52.376;16.744;2022-12-07T04:54:59;2.1;86.5
67893;DHT22;54688;52.376;16.744;2022-12-07T04:58:02;2.1;86.5
67893;DHT22;54688;52.376;16.744;2022-12-07T05:01:04;2.1;86.7
67893;DHT22;54688;52.376;16.744;2022-12-07T05:04:06;2.1;86.7
67893;DHT22;54688;52.376;16.744;2022-12-07T05:07:09;2.1;86.7
67893;DHT22;54688;52.376;16.744;2022-12-07T05:10:11;2.1;86.9
67893;DHT22;54688;52.376;16.744;2022-12-07T05:13:13;2.1;86.8
67893;DHT22;54688;52.376;16.744;2022-12-07T05:16:15;2.1;87
67893;DHT22;54688;52.376;16.744;2022-12-07T05:19:23;2.1;86.9
67893;DHT22;54688;52.376;16.744;2022-12-07T05:22:25;2.1;86.9
67893;DHT22;54688;52.376;16.744;2022-12-07T05:25:27;2.1;86.9
67893;DHT22;54688;52.376;16.744;2022-12-07T05:28:29;2.1;86.4
67893;DHT22;54688;52.376;16.744;2022-12-07T05:31:32;2.1;86.9
67893;DHT22;54688;52.376;16.744;2022-12-07T05:34:34;2.1;86.9
67893;DHT22;54688;52.376;16.744;2022-12-07T05:37:36;2.1;86.9
67893;DHT22;54688;52.376;16.744;2022-12-07T05:43:38;2.1;87.1
67893;DHT22;54688;52.376;16.744;2022-12-07T05:46:40;2.1;87.2
67893;DHT22;54688;52.376;16.744;2022-12-07T05:49:42;2.1;87.3
67893;DHT22;54688;52.376;16.744;2022-12-07T05:52:44;2;87.1
67893;DHT22;54688;52.376;16.744;2022-12-07T05:55:46;2;87
67893;DHT22;54688;52.376;16.744;2022-12-07T05:58:48;1.9;87
67893;DHT22;54688;52.376;16.744;2022-12-07T06:01:51;1.8;87.2
67893;DHT22;54688;52.376;16.744;2022-12-07T06:04:55;1.8;87.6
67893;DHT22;54688;52.376;16.744;2022-12-07T06:07:57;1.8;87.8
67893;DHT22;54688;52.376;16.744;2022-12-07T06:10:59;1.8;88.1
67893;DHT22;54688;52.376;16.744;2022-12-07T06:14:01;1.8;88.4
67893;DHT22;54688;52.376;16.744;2022-12-07T06:17:03;1.8;88.4
67893;DHT22;54688;52.376;16.744;2022-12-07T06:20:06;1.8;88.3
67893;DHT22;54688;52.376;16.744;2022-12-07T06:26:07;1.8;88.4
67893;DHT22;54688;52.376;16.744;2022-12-07T06:29:09;1.8;88.4
67893;DHT22;54688;52.376;16.744;2022-12-07T06:32:13;1.8;88.5
67893;DHT22;54688;52.376;16.744;2022-12-07T06:35:15;1.8;88.5
67893;DHT22;54688;52.376;16.744;2022-12-07T06:38:17;1.8;88.1
67893;DHT22;54688;52.376;16.744;2022-12-07T06:41:19;1.7;87.8
67893;DHT22;54688;52.376;16.744;2022-12-07T06:44:22;1.6;87.3
67893;DHT22;54688;52.376;16.744;2022-12-07T06:47:25;1.6;87.8
67893;DHT22;54688;52.376;16.744;2022-12-07T06:50:27;1.5;88
67893;DHT22;54688;52.376;16.744;2022-12-07T06:53:29;1.4;88.1
67893;DHT22;54688;52.376;16.744;2022-12-07T06:56:31;1.5;88.4
67893;DHT22;54688;52.376;16.744;2022-12-07T06:59:33;1.4;88.7
67893;DHT22;54688;52.376;16.744;2022-12-07T07:02:35;1.4;88.6
67893;DHT22;54688;52.376;16.744;2022-12-07T07:05:37;1.4;88.6
67893;DHT22;54688;52.376;16.744;2022-12-07T07:08:40;1.3;88.7
67893;DHT22;54688;52.376;16.744;2022-12-07T07:11:42;1.3;88.9
67893;DHT22;54688;52.376;16.744;2022-12-07T07:14:44;1.3;89
67893;DHT22;54688;52.376;16.744;2022-12-07T07:17:46;1.3;89
67893;DHT22;54688;52.376;16.744;2022-12-07T07:20:49;1.3;89.1
67893;DHT22;54688;52.376;16.744;2022-12-07T07:23:52;1.4;89.1
67893;DHT22;54688;52.376;16.744;2022-12-07T07:26:54;1.4;89
67893;DHT22;54688;52.376;16.744;2022-12-07T07:29:56;1.4;88.6
67893;DHT22;54688;52.376;16.744;2022-12-07T07:32:59;1.4;88.6
67893;DHT22;54688;52.376;16.744;2022-12-07T07:36:02;1.4;88.8
67893;DHT22;54688;52.376;16.744;2022-12-07T07:39:04;1.4;88.7
67893;DHT22;54688;52.376;16.744;2022-12-07T07:42:06;1.4;88.7
67893;DHT22;54688;52.376;16.744;2022-12-07T07:45:08;1.4;88.6
67893;DHT22;54688;52.376;16.744;2022-12-07T07:48:11;1.4;88.4
67893;DHT22;54688;52.376;16.744;2022-12-07T07:51:13;1.4;88.2
67893;DHT22;54688;52.376;16.744;2022-12-07T07:54:16;1.4;88.1
67893;DHT22;54688;52.376;16.744;2022-12-07T07:57:18;1.4;87.8
67893;DHT22;54688;52.376;16.744;2022-12-07T08:00:21;1.3;87.6
67893;DHT22;54688;52.376;16.744;2022-12-07T08:03:24;1.4;87.7
67893;DHT22;54688;52.376;16.744;2022-12-07T08:06:26;1.4;87.5
67893;DHT22;54688;52.376;16.744;2022-12-07T08:09:29;1.4;87.3
67893;DHT22;54688;52.376;16.744;2022-12-07T08:12:31;1.4;87.3
67893;DHT22;54688;52.376;16.744;2022-12-07T08:15:38;1.4;86.9
67893;DHT22;54688;52.376;16.744;2022-12-07T08:18:41;1.4;86.8
67893;DHT22;54688;52.376;16.744;2022-12-07T08:21:43;1.5;86.7
67893;DHT22;54688;52.376;16.744;2022-12-07T08:24:45;1.5;86.5
67893;DHT22;54688;52.376;16.744;2022-12-07T08:27:47;1.5;86.3
67893;DHT22;54688;52.376;16.744;2022-12-07T08:30:49;1.5;85.3
67893;DHT22;54688;52.376;16.744;2022-12-07T08:33:51;1.4;85.4
67893;DHT22;54688;52.376;16.744;2022-12-07T08:39:52;1.3;85.7
67893;DHT22;54688;52.376;16.744;2022-12-07T08:42:55;1.3;85.7
67893;DHT22;54688;52.376;16.744;2022-12-07T08:46:00;1.2;85.4
67893;DHT22;54688;52.376;16.744;2022-12-07T08:49:09;1.1;85.2
67893;DHT22;54688;52.376;16.744;2022-12-07T08:52:13;1.1;85.4
67893;DHT22;54688;52.376;16.744;2022-12-07T08:55:15;1;85.8
67893;DHT22;54688;52.376;16.744;2022-12-07T08:58:17;1;86.3
67893;DHT22;54688;52.376;16.744;2022-12-07T09:01:20;1;86.7
67893;DHT22;54688;52.376;16.744;2022-12-07T09:04:23;1;87
67893;DHT22;54688;52.376;16.744;2022-12-07T09:07:25;1;87
67893;DHT22;54688;52.376;16.744;2022-12-07T09:10:28;1;87.1
67893;DHT22;54688;52.376;16.744;2022-12-07T09:13:30;1.1;87
67893;DHT22;54688;52.376;16.744;2022-12-07T09:16:32;1;86.7
67893;DHT22;54688;52.376;16.744;2022-12-07T09:19:34;1;86.8
67893;DHT22;54688;52.376;16.744;2022-12-07T09:22:36;1;86.9
67893;DHT22;54688;52.376;16.744;2022-12-07T09:25:38;1;87
67893;DHT22;54688;52.376;16.744;2022-12-07T09:28:40;1.1;87.2
67893;DHT22;54688;52.376;16.744;2022-12-07T09:31:42;1.1;87.4
67893;DHT22;54688;52.376;16.744;2022-12-07T09:34:44;1.1;87.4
67893;DHT22;54688;52.376;16.744;2022-12-07T09:37:46;1.1;87.5
67893;DHT22;54688;52.376;16.744;2022-12-07T09:40:48;1.2;87.6
67893;DHT22;54688;52.376;16.744;2022-12-07T09:43:51;1.2;87.4
67893;DHT22;54688;52.376;16.744;2022-12-07T09:46:54;1.2;87.3
67893;DHT22;54688;52.376;16.744;2022-12-07T09:49:58;1.2;87.1
67893;DHT22;54688;52.376;16.744;2022-12-07T09:53:06;1.1;86.9
67893;DHT22;54688;52.376;16.744;2022-12-07T09:56:11;1.1;86.7
67893;DHT22;54688;52.376;16.744;2022-12-07T09:59:16;1.1;86.7
67893;DHT22;54688;52.376;16.744;2022-12-07T10:02:24;1;86.6
67893;DHT22;54688;52.376;16.744;2022-12-07T10:05:30;1;87
67893;DHT22;54688;52.376;16.744;2022-12-07T10:08:36;1;87.4
67893;DHT22;54688;52.376;16.744;2022-12-07T10:12:10;1;87.6
67893;DHT22;54688;52.376;16.744;2022-12-07T10:15:13;1.1;87.7
67893;DHT22;54688;52.376;16.744;2022-12-07T10:18:18;1.1;87.3
67893;DHT22;54688;52.376;16.744;2022-12-07T10:21:26;1;86.7
67893;DHT22;54688;52.376;16.744;2022-12-07T10:24:29;1;86.3
67893;DHT22;54688;52.376;16.744;2022-12-07T10:27:31;0.9;86
67893;DHT22;54688;52.376;16.744;2022-12-07T10:30:45;0.8;85.8
67893;DHT22;54688;52.376;16.744;2022-12-07T10:33:49;0.8;86.1
67893;DHT22;54688;52.376;16.744;2022-12-07T10:36:53;0.7;86.4
67893;DHT22;54688;52.376;16.744;2022-12-07T10:40:22;0.8;87.7
67893;DHT22;54688;52.376;16.744;2022-12-07T10:43:31;0.8;87.3
67893;DHT22;54688;52.376;16.744;2022-12-07T10:46:52;0.8;87.8
67893;DHT22;54688;52.376;16.744;2022-12-07T10:50:10;0.8;87.8
67893;DHT22;54688;52.376;16.744;2022-12-07T10:53:22;1;88.1
67893;DHT22;54688;52.376;16.744;2022-12-07T10:56:36;1;88.1
67893;DHT22;54688;52.376;16.744;2022-12-07T11:00:22;1.1;88.2
67893;DHT22;54688;52.376;16.744;2022-12-07T11:03:29;1.2;88.4
67893;DHT22;54688;52.376;16.744;2022-12-07T11:06:43;1.2;88.5
67893;DHT22;54688;52.376;16.744;2022-12-07T11:09:54;1.2;88.3
67893;DHT22;54688;52.376;16.744;2022-12-07T11:13:08;1.3;87.9
67893;DHT22;54688;52.376;16.744;2022-12-07T11:16:19;1.3;87.2
67893;DHT22;54688;52.376;16.744;2022-12-07T11:19:31;1.1;86.5
67893;DHT22;54688;52.376;16.744;2022-12-07T11:22:45;1;86
67893;DHT22;54688;52.376;16.744;2022-12-07T11:25:54;0.9;86.3
67893;DHT22;54688;52.376;16.744;2022-12-07T11:29:06;0.8;86.9
67893;DHT22;54688;52.376;16.744;2022-12-07T11:32:29;0.8;87.6
67893;DHT22;54688;52.376;16.744;2022-12-07T11:35:47;0.8;88.2
67893;DHT22;54688;52.376;16.744;2022-12-07T11:38:57;0.9;88.7
67893;DHT22;54688;52.376;16.744;2022-12-07T11:42:05;1;89.1
67893;DHT22;54688;52.376;16.744;2022-12-07T11:45:13;1.1;89.3
67893;DHT22;54688;52.376;16.744;2022-12-07T11:48:18;1.2;88.9
67893;DHT22;54688;52.376;16.744;2022-12-07T11:51:26;1.3;89
67893;DHT22;54688;52.376;16.744;2022-12-07T11:54:32;1.4;88.6
67893;DHT22;54688;52.376;16.744;2022-12-07T11:57:39;1.4;88.8
67893;DHT22;54688;52.376;16.744;2022-12-07T12:00:47;1.6;88.1
67893;DHT22;54688;52.376;16.744;2022-12-07T12:03:52;1.7;89
67893;DHT22;54688;52.376;16.744;2022-12-07T12:06:57;1.7;88.8
67893;DHT22;54688;52.376;16.744;2022-12-07T12:10:02;1.8;88.5
67893;DHT22;54688;52.376;16.744;2022-12-07T12:13:12;1.9;88.1
67893;DHT22;54688;52.376;16.744;2022-12-07T12:16:35;1.9;87.9
67893;DHT22;54688;52.376;16.744;2022-12-07T12:19:57;2;87.7
67893;DHT22;54688;52.376;16.744;2022-12-07T12:23:05;2;87.3
67893;DHT22;54688;52.376;16.744;2022-12-07T12:26:14;2.1;87.2
67893;DHT22;54688;52.376;16.744;2022-12-07T12:29:21;2.1;87.2
67893;DHT22;54688;52.376;16.744;2022-12-07T12:32:30;2.1;86.5
67893;DHT22;54688;52.376;16.744;2022-12-07T12:35:39;2.1;87.1
67893;DHT22;54688;52.376;16.744;2022-12-07T12:38:49;2.1;86.3
67893;DHT22;54688;52.376;16.744;2022-12-07T12:41:53;2.2;86.6
67893;DHT22;54688;52.376;16.744;2022-12-07T12:45:03;2.1;86.4
67893;DHT22;54688;52.376;16.744;2022-12-07T12:48:28;2.2;86
67893;DHT22;54688;52.376;16.744;2022-12-07T12:51:35;2.2;85.6
67893;DHT22;54688;52.376;16.744;2022-12-07T12:54:38;2.1;85.7
67893;DHT22;54688;52.376;16.744;2022-12-07T13:00:14;2;85.9
67893;DHT22;54688;52.376;16.744;2022-12-07T13:03:21;2;86.2
67893;DHT22;54688;52.376;16.744;2022-12-07T13:06:32;2;86.3
67893;DHT22;54688;52.376;16.744;2022-12-07T13:09:37;2;86.6
67893;DHT22;54688;52.376;16.744;2022-12-07T13:12:54;2;86.7
67893;DHT22;54688;52.376;16.744;2022-12-07T13:16:35;2;86.2
67893;DHT22;54688;52.376;16.744;2022-12-07T13:19:54;1.9;86.1
67893;DHT22;54688;52.376;16.744;2022-12-07T13:22:58;1.8;85.9
67893;DHT22;54688;52.376;16.744;2022-12-07T13:26:02;1.6;86.5
67893;DHT22;54688;52.376;16.744;2022-12-07T13:29:11;1.5;85.4
67893;DHT22;54688;52.376;16.744;2022-12-07T13:32:19;1.3;86.2
67893;DHT22;54688;52.376;16.744;2022-12-07T13:35:27;1.1;87.4
67893;DHT22;54688;52.376;16.744;2022-12-07T13:38:33;1.1;88.5
67893;DHT22;54688;52.376;16.744;2022-12-07T13:41:36;1.2;89.3
67893;DHT22;54688;52.376;16.744;2022-12-07T13:44:43;1.2;89.5
67893;DHT22;54688;52.376;16.744;2022-12-07T13:47:50;1.3;90
67893;DHT22;54688;52.376;16.744;2022-12-07T13:50:55;1.3;89.2
67893;DHT22;54688;52.376;16.744;2022-12-07T13:54:00;1.3;88.9
67893;DHT22;54688;52.376;16.744;2022-12-07T13:57:03;1.3;88.7
67893;DHT22;54688;52.376;16.744;2022-12-07T14:00:13;1.3;88.5
67893;DHT22;54688;52.376;16.744;2022-12-07T14:03:26;1.3;88.4
67893;DHT22;54688;52.376;16.744;2022-12-07T14:06:31;1.3;88.5
67893;DHT22;54688;52.376;16.744;2022-12-07T14:09:33;1.3;88.6
67893;DHT22;54688;52.376;16.744;2022-12-07T14:12:36;1.3;88.5
67893;DHT22;54688;52.376;16.744;2022-12-07T14:15:38;1.4;88.5
67893;DHT22;54688;52.376;16.744;2022-12-07T14:18:41;1.4;88.4
67893;DHT22;54688;52.376;16.744;2022-12-07T14:21:44;1.3;88.2
67893;DHT22;54688;52.376;16.744;2022-12-07T14:24:46;1.3;87.9
67893;DHT22;54688;52.376;16.744;2022-12-07T14:27:51;1.2;87.7
67893;DHT22;54688;52.376;16.744;2022-12-07T14:30:54;1.1;87.5
67893;DHT22;54688;52.376;16.744;2022-12-07T14:33:58;1;87
67893;DHT22;54688;52.376;16.744;2022-12-07T14:37:00;0.7;86.9
67893;DHT22;54688;52.376;16.744;2022-12-07T14:40:03;0.5;87.6
67893;DHT22;54688;52.376;16.744;2022-12-07T14:43:10;0.5;88
67893;DHT22;54688;52.376;16.744;2022-12-07T14:46:15;0.4;88.5
67893;DHT22;54688;52.376;16.744;2022-12-07T14:49:18;0.3;88.5
67893;DHT22;54688;52.376;16.744;2022-12-07T14:52:21;0.3;88.6
67893;DHT22;54688;52.376;16.744;2022-12-07T14:55:26;0.2;88.7
67893;DHT22;54688;52.376;16.744;2022-12-07T14:58:29;0.1;88.7
67893;DHT22;54688;52.376;16.744;2022-12-07T15:01:31;0;88.8
67893;DHT22;54688;52.376;16.744;2022-12-07T15:04:33;0;89
67893;DHT22;54688;52.376;16.744;2022-12-07T15:07:35;0;89.1
67893;DHT22;54688;52.376;16.744;2022-12-07T15:10:38;0;89.2
67893;DHT22;54688;52.376;16.744;2022-12-07T15:13:40;0;89.2
67893;DHT22;54688;52.376;16.744;2022-12-07T15:16:42;0;89.4
67893;DHT22;54688;52.376;16.744;2022-12-07T15:19:45;0;89
67893;DHT22;54688;52.376;16.744;2022-12-07T15:22:47;0;88.7
67893;DHT22;54688;52.376;16.744;2022-12-07T15:25:49;-0.1;88.6
67893;DHT22;54688;52.376;16.744;2022-12-07T15:28:53;-0.1;88.6
67893;DHT22;54688;52.376;16.744;2022-12-07T15:31:55;-0.2;88.6
67893;DHT22;54688;52.376;16.744;2022-12-07T15:34:57;-0.2;88.6
67893;DHT22;54688;52.376;16.744;2022-12-07T15:37:59;-0.2;88.6
67893;DHT22;54688;52.376;16.744;2022-12-07T15:41:01;-0.2;88.6
67893;DHT22;54688;52.376;16.744;2022-12-07T15:44:03;-0.2;88.6
67893;DHT22;54688;52.376;16.744;2022-12-07T15:53:04;-0.3;88.3
67893;DHT22;54688;52.376;16.744;2022-12-07T15:56:06;-0.3;88.5
67893;DHT22;54688;52.376;16.744;2022-12-07T15:59:10;-0.2;88.6
67893;DHT22;54688;52.376;16.744;2022-12-07T16:08:10;-0.3;88.4
67893;DHT22;54688;52.376;16.744;2022-12-07T16:11:13;-0.3;88.5
67893;DHT22;54688;52.376;16.744;2022-12-07T16:14:15;-0.4;89.1
67893;DHT22;54688;52.376;16.744;2022-12-07T16:17:18;-0.3;88.5
67893;DHT22;54688;52.376;16.744;2022-12-07T16:20:20;-0.3;88.5
67893;DHT22;54688;52.376;16.744;2022-12-07T16:23:22;-0.3;88.6
67893;DHT22;54688;52.376;16.744;2022-12-07T16:26:24;-0.3;88.8
67893;DHT22;54688;52.376;16.744;2022-12-07T16:29:27;-0.3;88.9
67893;DHT22;54688;52.376;16.744;2022-12-07T16:32:29;-0.3;88.7
67893;DHT22;54688;52.376;16.744;2022-12-07T16:35:31;-0.2;88.6
67893;DHT22;54688;52.376;16.744;2022-12-07T16:38:33;-0.2;88.6
67893;DHT22;54688;52.376;16.744;2022-12-07T16:41:36;-0.2;88.6
67893;DHT22;54688;52.376;16.744;2022-12-07T16:44:39;-0.3;88.7
67893;DHT22;54688;52.376;16.744;2022-12-07T16:47:41;-0.2;88.9
67893;DHT22;54688;52.376;16.744;2022-12-07T16:50:43;-0.2;88.8
67893;DHT22;54688;52.376;16.744;2022-12-07T16:53:46;-0.1;88.6
67893;DHT22;54688;52.376;16.744;2022-12-07T16:56:48;-0.1;88.6
67893;DHT22;54688;52.376;16.744;2022-12-07T16:59:50;-0.1;88.3
67893;DHT22;54688;52.376;16.744;2022-12-07T17:02:53;-0.1;88.4
67893;DHT22;54688;52.376;16.744;2022-12-07T17:05:56;0;88.6
67893;DHT22;54688;52.376;16.744;2022-12-07T17:08:58;0;88.3
67893;DHT22;54688;52.376;16.744;2022-12-07T17:12:00;0;88.1
67893;DHT22;54688;52.376;16.744;2022-12-07T17:15:03;0.1;87.9
67893;DHT22;54688;52.376;16.744;2022-12-07T17:18:06;0.1;87.6
67893;DHT22;54688;52.376;16.744;2022-12-07T17:21:08;0.1;87.5
67893;DHT22;54688;52.376;16.744;2022-12-07T17:24:11;0;87.3
67893;DHT22;54688;52.376;16.744;2022-12-07T17:27:16;0.1;87.2
67893;DHT22;54688;52.376;16.744;2022-12-07T17:30:18;0.1;87.3
67893;DHT22;54688;52.376;16.744;2022-12-07T17:33:20;0.1;87.3
67893;DHT22;54688;52.376;16.744;2022-12-07T17:36:23;0.1;87.1
67893;DHT22;54688;52.376;16.744;2022-12-07T17:39:26;0.1;86.8
67893;DHT22;54688;52.376;16.744;2022-12-07T17:42:30;0.1;87.2
67893;DHT22;54688;52.376;16.744;2022-12-07T17:45:32;0.1;87.1
67893;DHT22;54688;52.376;16.744;2022-12-07T17:48:34;0.1;87.1
67893;DHT22;54688;52.376;16.744;2022-12-07T17:51:36;0;87
67893;DHT22;54688;52.376;16.744;2022-12-07T17:54:38;0;86.9
67893;DHT22;54688;52.376;16.744;2022-12-07T18:00:39;0;86.9
67893;DHT22;54688;52.376;16.744;2022-12-07T18:03:41;-0.1;86.8
67893;DHT22;54688;52.376;16.744;2022-12-07T18:06:43;-0.1;86.9
67893;DHT22;54688;52.376;16.744;2022-12-07T18:09:46;-0.1;86.9
67893;DHT22;54688;52.376;16.744;2022-12-07T18:12:48;-0.1;87
67893;DHT22;54688;52.376;16.744;2022-12-07T18:15:54;-0.1;87
67893;DHT22;54688;52.376;16.744;2022-12-07T18:18:58;-0.1;87
67893;DHT22;54688;52.376;16.744;2022-12-07T18:22:01;-0.1;86.9
67893;DHT22;54688;52.376;16.744;2022-12-07T18:25:04;-0.1;86.7
67893;DHT22;54688;52.376;16.744;2022-12-07T18:28:07;-0.1;86.7
67893;DHT22;54688;52.376;16.744;2022-12-07T18:31:10;-0.1;86.9
67893;DHT22;54688;52.376;16.744;2022-12-07T18:34:14;-0.1;87.1
67893;DHT22;54688;52.376;16.744;2022-12-07T18:37:17;-0.2;86.9
67893;DHT22;54688;52.376;16.744;2022-12-07T18:40:20;-0.2;87.4
67893;DHT22;54688;52.376;16.744;2022-12-07T18:43:22;-0.1;87.5
67893;DHT22;54688;52.376;16.744;2022-12-07T18:46:24;-0.1;87.5
67893;DHT22;54688;52.376;16.744;2022-12-07T18:49:27;-0.1;87.6
67893;DHT22;54688;52.376;16.744;2022-12-07T18:52:29;0;87.6
67893;DHT22;54688;52.376;16.744;2022-12-07T18:55:31;0;87.4
67893;DHT22;54688;52.376;16.744;2022-12-07T18:58:34;-0.1;87.3
67893;DHT22;54688;52.376;16.744;2022-12-07T19:01:36;0;87.1
67893;DHT22;54688;52.376;16.744;2022-12-07T19:04:39;0;87
67893;DHT22;54688;52.376;16.744;2022-12-07T19:07:41;0;86.9
67893;DHT22;54688;52.376;16.744;2022-12-07T19:10:43;0;86.8
67893;DHT22;54688;52.376;16.744;2022-12-07T19:13:45;-0.1;86.9
67893;DHT22;54688;52.376;16.744;2022-12-07T19:16:48;-0.1;86.8
67893;DHT22;54688;52.376;16.744;2022-12-07T19:19:51;-0.2;87
67893;DHT22;54688;52.376;16.744;2022-12-07T19:22:53;-0.2;87
67893;DHT22;54688;52.376;16.744;2022-12-07T19:25:55;-0.2;86.9
67893;DHT22;54688;52.376;16.744;2022-12-07T19:28:58;-0.3;86.7
67893;DHT22;54688;52.376;16.744;2022-12-07T19:32:01;-0.3;86.7
67893;DHT22;54688;52.376;16.744;2022-12-07T19:35:04;-0.3;86.7
67893;DHT22;54688;52.376;16.744;2022-12-07T19:38:07;-0.3;86.8
67893;DHT22;54688;52.376;16.744;2022-12-07T19:41:10;-0.2;86.7
67893;DHT22;54688;52.376;16.744;2022-12-07T19:44:14;-0.2;86.5
67893;DHT22;54688;52.376;16.744;2022-12-07T19:50:15;-0.3;86
67893;DHT22;54688;52.376;16.744;2022-12-07T19:53:17;-0.3;86.1
67893;DHT22;54688;52.376;16.744;2022-12-07T19:56:20;-0.4;86.3
67893;DHT22;54688;52.376;16.744;2022-12-07T19:59:22;-0.4;86.3
67893;DHT22;54688;52.376;16.744;2022-12-07T20:02:26;-0.4;86.4
67893;DHT22;54688;52.376;16.744;2022-12-07T20:05:29;-0.4;86.5
67893;DHT22;54688;52.376;16.744;2022-12-07T20:08:31;-0.4;86.3
67893;DHT22;54688;52.376;16.744;2022-12-07T20:14:32;-0.4;86.4
67893;DHT22;54688;52.376;16.744;2022-12-07T20:17:34;-0.4;86.5
67893;DHT22;54688;52.376;16.744;2022-12-07T20:20:36;-0.5;86.3
67893;DHT22;54688;52.376;16.744;2022-12-07T20:23:40;-0.5;86
67893;DHT22;54688;52.376;16.744;2022-12-07T20:26:42;-0.5;85.9
67893;DHT22;54688;52.376;16.744;2022-12-07T20:29:46;-0.5;85.2
67893;DHT22;54688;52.376;16.744;2022-12-07T20:32:48;-0.6;85.6
67893;DHT22;54688;52.376;16.744;2022-12-07T20:35:50;-0.6;85.8
67893;DHT22;54688;52.376;16.744;2022-12-07T20:38:53;-0.6;85.8
67893;DHT22;54688;52.376;16.744;2022-12-07T20:41:56;-0.6;85.8
67893;DHT22;54688;52.376;16.744;2022-12-07T20:44:58;-0.7;85.8
67893;DHT22;54688;52.376;16.744;2022-12-07T20:48:01;-0.7;85.9
67893;DHT22;54688;52.376;16.744;2022-12-07T20:51:03;-0.7;86
67893;DHT22;54688;52.376;16.744;2022-12-07T20:54:07;-0.7;86.2
67893;DHT22;54688;52.376;16.744;2022-12-07T20:57:09;-0.7;86.1